Time;durP1;ratioP1;P1;durP2;ratioP2;P2;SDS_P1;SDS_P2;PMS_P1;PMS_P2;Temp;Humidity;BMP_temperature;BMP_pressure;BME280_temperature;BME280_humidity;BME280_pressure;Samples;Min_cycle;Max_cycle;Signal;HPM_P1;HPM_P2
2022/03/12 00:01:42;;;;;;;;;;;;;;;;;;5075593;28;19904;-64
2022/03/12 00:04:07;;;;;;;;;;;;;;;;;;5093640;28;20306;-64
2022/03/12 00:06:33;;;;;;;;;;;;;;;;;;5075499;28;19911;-64
2022/03/12 00:08:59;;;;;;;;;;;;;;;;;;5075577;28;19912;-64
2022/03/12 00:11:25;;;;;;;;;;;;;;;;;;5075402;28;19999;-64
2022/03/12 00:13:51;;;;;;;;;;;;;;;;;;5093581;28;20291;-64
2022/03/12 00:16:22;;;;;;;;;;;;;;;;;;5115968;22;19920;-61
2022/03/12 00:18:49;;;;;;;;;;;;;;;;;;5075863;28;19904;-61
2022/03/12 00:21:15;;;;;;;;;;;;;;;;;;5075573;28;19904;-62
2022/03/12 00:23:48;;;;;;;;;;;;;;;;;;5093766;28;19904;-61
2022/03/12 00:26:15;;;;;;;;;;;;;;;;;;5075743;28;19904;-61
2022/03/12 00:28:42;;;;;;;;;;;;;;;;;;5075641;28;20356;-61
2022/03/12 00:31:09;;;;;;;;;;;;;;;;;;5093635;28;19912;-61
2022/03/12 00:33:35;;;;;;;;;;;;;;;;;;5095865;28;19904;-61
2022/03/12 00:36:02;;;;;;;;;;;;;;;;;;5079550;28;19995;-61
2022/03/12 00:38:28;;;;;;;;;;;;;;;;;;5079635;28;19908;-61
2022/03/12 00:40:54;;;;;;;;;;;;;;;;;;5079596;28;19994;-62
2022/03/12 00:43:20;;;;;;;;;;;;;;;;;;5097668;28;19915;-61
2022/03/12 00:45:46;;;;;;;;;;;;;;;;;;5097479;28;19904;-61
2022/03/12 00:48:11;;;;;;;;;;;;;;;;;;5097556;28;19911;-61
2022/03/12 00:50:37;;;;;;;;;;;;;;;;;;5097259;28;20010;-62
2022/03/12 00:53:03;;;;;;;;;;;;;;;;;;5097304;28;19970;-61
2022/03/12 00:55:29;;;;;;;9.03;5.67;;;;;;;;;;5078771;28;20317;-61
2022/03/12 00:57:55;;;;;;;7.20;5.73;;;;;;;;;;5096782;28;20201;-61
2022/03/12 01:00:22;;;;;;;7.83;5.83;;;;;;;;;;5096825;28;20191;-60
2022/03/12 01:02:48;;;;;;;10.63;5.33;;;;;;;;;;5097203;28;20173;-61
2022/03/12 01:05:16;;;;;;;6.60;5.60;;;;;;;;;;5097007;28;20173;-62
2022/03/12 01:07:42;;;;;;;7.43;6.00;;;;;;;;;;5096650;28;20699;-61
2022/03/12 01:10:08;;;;;;;10.70;5.70;;;;;;;;;;5096736;28;20191;-61
2022/03/12 01:12:34;;;;;;;7.77;5.70;;;;;;;;;;5096859;28;20218;-62
2022/03/12 01:15:01;;;;;;;11.73;6.00;;;;;;;;;;5096837;28;20234;-61
2022/03/12 01:17:27;;;;;;;8.90;5.97;;;;;;;;;;5078371;28;20205;-61
2022/03/12 01:19:53;;;;;;;13.40;6.00;;;;;;;;;;5096504;28;20169;-61
2022/03/12 01:22:21;;;;;;;7.23;5.90;;;;;;;;;;5096544;28;20189;-62
2022/03/12 01:24:48;;;;;;;11.23;5.80;;;;;;;;;;5096395;28;20234;-61
2022/03/12 01:27:15;;;;;;;9.60;5.97;;;;;;;;;;5096631;28;20200;-62
2022/03/12 01:29:41;;;;;;;8.93;5.50;;;;;;;;;;5096423;28;20552;-63
2022/03/12 01:32:08;;;;;;;8.63;5.57;;;;;;;;;;5096743;28;20208;-62
2022/03/12 01:34:34;;;;;;;10.50;5.97;;;;;;;;;;5096705;28;20169;-62
2022/03/12 01:37:00;;;;;;;9.07;6.67;;;;;;;;;;5079272;28;20385;-62
2022/03/12 01:39:26;;;;;;;7.93;5.73;;;;;;;;;;5099127;28;20173;-62
2022/03/12 01:41:52;;;;;;;7.93;5.63;;;;;;;;;;5088383;28;20206;-62
2022/03/12 01:44:18;;;;;;;7.93;5.97;;;;;;;;;;5111591;28;20184;-62
2022/03/12 01:46:45;;;;;;;11.47;6.17;;;;;;;;;;5112441;28;20200;-62
2022/03/12 01:49:13;;;;;;;6.93;5.67;;;;;;;;;;5112594;28;20204;-63
2022/03/12 01:51:40;;;;;;;7.47;6.00;;;;;;;;;;5105780;28;20624;-62
2022/03/12 01:54:06;;;;;;;7.83;5.87;;;;;;;;;;5101106;28;20181;-62
2022/03/12 01:56:34;;;;;;;9.73;6.23;;;;;;;;;;5080419;28;20672;-62
2022/03/12 01:59:01;;;;;;;9.43;5.33;;;;;;;;;;5097466;28;20405;-62
2022/03/12 02:01:28;;;;;;;8.50;6.30;;;;;;;;;;5077863;28;20185;-62
2022/03/12 02:03:56;;;;;;;6.97;6.27;;;;;;;;;;5095640;28;20188;-62
2022/03/12 02:06:22;;;;;;;8.40;5.83;;;;;;;;;;5077486;28;20224;-62
2022/03/12 02:08:49;;;;;;;8.67;5.80;;;;;;;;;;5077439;28;20238;-62
2022/03/12 02:11:27;;;;;;;7.90;6.40;;;;;;;;;;5095648;28;20642;-62
2022/03/12 02:14:00;;;;;;;15.90;6.57;;;;;;;;;;5095913;28;20153;-62
2022/03/12 02:16:26;;;;;;;8.00;5.87;;;;;;;;;;5077171;28;20630;-62
2022/03/12 02:18:52;;;;;;;8.93;6.03;;;;;;;;;;5095454;28;20173;-62
2022/03/12 02:21:34;;;;;;;8.07;6.07;;;;;;;;;;5095528;28;20235;-62
2022/03/12 02:24:00;;;;;;;8.43;5.53;;;;;;;;;;5095518;28;20204;-62
2022/03/12 02:26:26;;;;;;;7.53;6.00;;;;;;;;;;5095040;28;20232;-62
2022/03/12 02:28:51;;;;;;;8.47;6.20;;;;;;;;;;5095058;28;20180;-62
2022/03/12 02:31:18;;;;;;;8.93;6.57;;;;;;;;;;5095097;28;20700;-62
2022/03/12 02:33:44;;;;;;;8.43;6.53;;;;;;;;;;5094952;28;20200;-62
2022/03/12 02:36:13;;;;;;;8.33;5.70;;;;;;;;;;5094902;28;20189;-62
2022/03/12 02:38:40;;;;;;;9.20;6.83;;;;;;;;;;5094920;28;20172;-62
2022/03/12 02:41:13;;;;;;;9.97;7.00;;;;;;;;;;5094865;28;20181;-62
2022/03/12 02:43:43;;;;;;;9.80;6.70;;;;;;;;;;5095362;28;20165;-62
2022/03/12 02:46:09;;;;;;;8.30;6.03;;;;;;;;;;5076677;28;20575;-62
2022/03/12 02:48:35;;;;;;;9.23;6.57;;;;;;;;;;5095066;28;20178;-62
2022/03/12 02:51:01;;;;;;;11.73;6.50;;;;;;;;;;5076522;28;20205;-62
2022/03/12 02:53:27;;;;;;;8.43;6.43;;;;;;;;;;5095055;28;20173;-62
2022/03/12 02:55:53;;;;;;;10.13;7.13;;;;;;;;;;5094486;28;20307;-62
2022/03/12 02:58:19;;;;;;;9.53;6.37;;;;;;;;;;5094218;28;20173;-62
2022/03/12 03:00:47;;;;;;;8.07;6.37;;;;;;;;;;5076320;28;20184;-62
2022/03/12 03:03:13;;;;;;;9.60;7.13;;;;;;;;;;5076423;28;20173;-62
2022/03/12 03:05:47;;;;;;;9.83;7.23;;;;;;;;;;5094453;28;20256;-61
2022/03/12 03:08:16;;;;;;;11.20;7.13;;;;;;;;;;5094799;28;20249;-62
2022/03/12 03:10:43;;;;;;;7.60;6.30;;;;;;;;;;5094382;28;20196;-62
2022/03/12 03:13:15;;;;;;;8.60;6.83;;;;;;;;;;5094364;28;20220;-62
2022/03/12 03:15:42;;;;;;;12.17;6.97;;;;;;;;;;5094293;28;20177;-62
2022/03/12 03:18:10;;;;;;;10.17;8.13;;;;;;;;;;5094320;28;20578;-62
2022/03/12 03:20:36;;;;;;;10.60;7.17;;;;;;;;;;5094402;28;20540;-62
2022/03/12 03:23:02;;;;;;;11.67;6.70;;;;;;;;;;5094120;28;20545;-62
2022/03/12 03:25:28;;;;;;;11.20;6.87;;;;;;;;;;5094113;28;20215;-62
2022/03/12 03:27:54;;;;;;;9.00;6.87;;;;;;;;;;5093965;28;20203;-62
2022/03/12 03:30:20;;;;;;;8.67;6.73;;;;;;;;;;5075764;28;20177;-61
2022/03/12 03:32:46;;;;;;;11.90;7.20;;;;;;;;;;5093989;28;20176;-61
2022/03/12 03:35:12;;;;;;;8.97;6.80;;;;;;;;;;5093864;28;20545;-61
2022/03/12 03:37:38;;;;;;;14.43;6.70;;;;;;;;;;5093807;28;20702;-61
2022/03/12 03:40:04;;;;;;;9.43;6.80;;;;;;;;;;5093883;28;20692;-61
2022/03/12 03:42:30;;;;;;;11.83;7.27;;;;;;;;;;5100739;28;20204;-61
2022/03/12 03:45:02;;;;;;;10.00;7.20;;;;;;;;;;5105073;28;20184;-61
2022/03/12 03:47:28;;;;;;;9.87;6.70;;;;;;;;;;5104633;28;20279;-61
2022/03/12 03:49:55;;;;;;;9.83;6.67;;;;;;;;;;5078762;28;20181;-61
2022/03/12 03:52:21;;;;;;;11.63;7.03;;;;;;;;;;5093851;28;20197;-61
2022/03/12 03:54:47;;;;;;;8.20;6.00;;;;;;;;;;5093930;28;20169;-61
2022/03/12 03:57:16;;;;;;;10.50;7.00;;;;;;;;;;5093562;28;20192;-61
2022/03/12 03:59:42;;;;;;;10.43;6.83;;;;;;;;;;5094222;28;20176;-61
2022/03/12 04:02:08;;;;;;;11.67;7.87;;;;;;;;;;5093557;28;20173;-61
2022/03/12 04:04:36;;;;;;;11.33;7.00;;;;;;;;;;5093525;28;20654;-61
2022/03/12 04:07:03;;;;;;;10.50;7.40;;;;;;;;;;5093551;28;20205;-61
2022/03/12 04:09:29;;;;;;;10.13;6.53;;;;;;;;;;5097402;28;20195;-61
2022/03/12 04:11:55;;;;;;;12.30;6.97;;;;;;;;;;5097720;28;20611;-61
2022/03/12 04:14:21;;;;;;;9.27;6.50;;;;;;;;;;5097628;28;20211;-61
2022/03/12 04:16:47;;;;;;;8.17;6.40;;;;;;;;;;5079334;28;20212;-61
2022/03/12 04:19:14;;;;;;;11.83;6.97;;;;;;;;;;5097549;28;20230;-61
2022/03/12 04:21:40;;;;;;;7.67;6.40;;;;;;;;;;5098201;28;20173;-61
2022/03/12 04:24:06;;;;;;;12.33;7.23;;;;;;;;;;5079399;28;20694;-61
2022/03/12 04:26:35;;;;;;;8.80;6.37;;;;;;;;;;5097501;28;20210;-61
2022/03/12 04:29:02;;;;;;;9.10;6.57;;;;;;;;;;5097791;28;20187;-60
2022/03/12 04:31:28;;;;;;;11.40;6.83;;;;;;;;;;5097389;28;20220;-62
2022/03/12 04:33:54;;;;;;;6.90;6.13;;;;;;;;;;5079277;28;20188;-62
2022/03/12 04:36:20;;;;;;;11.13;7.70;;;;;;;;;;5097244;28;20193;-62
2022/03/12 04:38:48;;;;;;;14.03;7.53;;;;;;;;;;5097208;28;20174;-62
2022/03/12 04:41:15;;;;;;;14.00;6.87;;;;;;;;;;5097879;28;20173;-62
2022/03/12 04:43:42;;;;;;;12.37;7.37;;;;;;;;;;5098275;28;20268;-62
2022/03/12 04:46:08;;;;;;;13.70;7.03;;;;;;;;;;5097414;28;20196;-61
2022/03/12 04:48:34;;;;;;;12.73;8.00;;;;;;;;;;5097147;28;20177;-62
2022/03/12 04:51:00;;;;;;;10.27;7.57;;;;;;;;;;5097365;28;20201;-62
2022/03/12 04:53:27;;;;;;;11.73;7.00;;;;;;;;;;5097387;28;20183;-62
2022/03/12 04:55:53;;;;;;;9.83;7.20;;;;;;;;;;5078945;28;20256;-62
2022/03/12 04:58:19;;;;;;;10.97;7.47;;;;;;;;;;5079042;28;20212;-62
2022/03/12 05:00:46;;;;;;;10.90;7.33;;;;;;;;;;5097076;28;20230;-62
2022/03/12 05:03:20;;;;;;;11.27;7.33;;;;;;;;;;5097586;28;20268;-62
2022/03/12 05:05:48;;;;;;;9.20;6.93;;;;;;;;;;5097152;28;20165;-61
2022/03/12 05:08:17;;;;;;;11.63;7.40;;;;;;;;;;5097649;28;20644;-62
2022/03/12 05:10:44;;;;;;;10.30;6.93;;;;;;;;;;5097365;28;20208;-62
2022/03/12 05:13:12;;;;;;;8.00;7.07;;;;;;;;;;5096700;28;20640;-62
2022/03/12 05:15:38;;;;;;;10.20;7.23;;;;;;;;;;5097096;28;20173;-61
2022/03/12 05:18:11;;;;;;;10.13;7.50;;;;;;;;;;5078460;28;20213;-62
2022/03/12 05:20:38;;;;;;;11.63;7.50;;;;;;;;;;5096190;28;20321;-62
2022/03/12 05:23:07;;;;;;;15.50;7.60;;;;;;;;;;5096676;28;20554;-62
2022/03/12 05:25:33;;;;;;;8.53;6.90;;;;;;;;;;5078239;28;20268;-61
2022/03/12 05:27:59;;;;;;;8.47;7.03;;;;;;;;;;5078358;28;20238;-62
2022/03/12 05:30:27;;;;;;;12.33;6.70;;;;;;;;;;5096647;28;20575;-62
2022/03/12 05:32:54;;;;;;;10.93;7.57;;;;;;;;;;5096618;28;20687;-62
2022/03/12 05:35:20;;;;;;;10.13;7.40;;;;;;;;;;5096995;28;20209;-61
2022/03/12 05:37:47;;;;;;;10.23;7.73;;;;;;;;;;5061685;28;20335;-61
2022/03/12 05:40:18;;;;;;;13.10;7.80;;;;;;;;;;5078325;28;20618;-61
2022/03/12 05:42:44;;;;;;;9.20;6.87;;;;;;;;;;5078157;28;20617;-62
2022/03/12 05:45:10;;;;;;;10.50;7.63;;;;;;;;;;5078468;28;20608;-62
2022/03/12 05:47:38;;;;;;;10.37;7.47;;;;;;;;;;5096048;28;20254;-62
2022/03/12 05:50:04;;;;;;;11.43;7.90;;;;;;;;;;5096145;28;20169;-62
2022/03/12 05:52:30;;;;;;;11.50;7.70;;;;;;;;;;5078141;28;20740;-62
2022/03/12 05:54:56;;;;;;;12.63;7.23;;;;;;;;;;5095913;28;20258;-62
2022/03/12 05:57:22;;;;;;;11.00;7.33;;;;;;;;;;5077914;28;20197;-62
2022/03/12 05:59:49;;;;;;;9.97;7.40;;;;;;;;;;5078734;28;20269;-62
2022/03/12 06:02:16;;;;;;;10.37;7.63;;;;;;;;;;5096055;28;20181;-62
2022/03/12 06:04:42;;;;;;;10.90;7.80;;;;;;;;;;5096019;28;20199;-62
2022/03/12 06:07:09;;;;;;;9.50;7.10;;;;;;;;;;5078036;28;20287;-62
2022/03/12 06:09:36;;;;;;;8.80;6.77;;;;;;;;;;5077591;28;20208;-62
2022/03/12 06:12:02;;;;;;;12.23;8.03;;;;;;;;;;5095881;28;20193;-62
2022/03/12 06:14:30;;;;;;;11.37;7.40;;;;;;;;;;5077744;28;20560;-62
2022/03/12 06:16:56;;;;;;;15.70;8.17;;;;;;;;;;5077876;28;20569;-62
2022/03/12 06:19:23;;;;;;;11.53;7.57;;;;;;;;;;5095846;28;20180;-62
2022/03/12 06:21:49;;;;;;;13.87;7.20;;;;;;;;;;5095941;28;20641;-63
2022/03/12 06:24:15;;;;;;;10.73;7.60;;;;;;;;;;5095640;28;20181;-62
2022/03/12 06:26:43;;;;;;;10.00;8.13;;;;;;;;;;5077401;28;20227;-62
2022/03/12 06:29:13;;;;;;;10.17;8.03;;;;;;;;;;5095658;28;20218;-63
2022/03/12 06:31:40;;;;;;;10.63;7.97;;;;;;;;;;5077577;28;20207;-62
2022/03/12 06:34:06;;;;;;;11.13;8.07;;;;;;;;;;5095653;28;20170;-62
2022/03/12 06:36:34;;;;;;;13.13;7.70;;;;;;;;;;5095651;28;20193;-62
2022/03/12 06:39:01;;;;;;;12.00;8.23;;;;;;;;;;5095770;28;20329;-61
2022/03/12 06:41:28;;;;;;;12.53;8.20;;;;;;;;;;5077433;28;20199;-61
2022/03/12 06:43:55;;;;;;;12.67;8.30;;;;;;;;;;5077085;28;20234;-61
2022/03/12 06:46:21;;;;;;;17.57;9.33;;;;;;;;;;5094973;28;20553;-61
2022/03/12 06:48:47;;;;;;;14.13;8.50;;;;;;;;;;5095552;28;20181;-61
2022/03/12 06:51:13;;;;;;;14.87;9.27;;;;;;;;;;5077404;28;20207;-61
2022/03/12 06:53:39;;;;;;;10.83;8.20;;;;;;;;;;5077132;28;20246;-61
2022/03/12 06:56:07;;;;;;;13.23;8.80;;;;;;;;;;5077060;28;20231;-61
2022/03/12 06:58:34;;;;;;;12.33;8.40;;;;;;;;;;5077200;28;20668;-61
2022/03/12 07:01:00;;;;;;;10.97;7.90;;;;;;;;;;5095452;28;20180;-62
2022/03/12 07:03:26;;;;;;;13.83;7.43;;;;;;;;;;5095010;28;20204;-62
2022/03/12 07:05:52;;;;;;;11.93;8.43;;;;;;;;;;5105465;22;20283;-63
2022/03/12 07:08:19;;;;;;;11.80;8.60;;;;;;;;;;5055928;28;20182;-62
2022/03/12 07:10:46;;;;;;;9.83;8.03;;;;;;;;;;5056241;28;20220;-64
2022/03/12 07:13:12;;;;;;;10.40;7.50;;;;;;;;;;5073865;28;20166;-65
2022/03/12 07:15:38;;;;;;;9.93;6.70;;;;;;;;;;5073810;28;20669;-64
2022/03/12 07:18:04;;;;;;;12.90;7.57;;;;;;;;;;5055807;28;20173;-62
2022/03/12 07:20:30;;;;;;;10.80;7.77;;;;;;;;;;5073835;28;20633;-63
2022/03/12 07:22:56;;;;;;;9.97;7.33;;;;;;;;;;5074629;28;20531;-62
2022/03/12 07:25:25;;;;;;;10.97;8.47;;;;;;;;;;5073436;28;20197;-62
2022/03/12 07:27:52;;;;;;;13.03;7.60;;;;;;;;;;5073585;28;20170;-63
2022/03/12 07:30:19;;;;;;;9.50;7.37;;;;;;;;;;5074062;28;20222;-63
2022/03/12 07:32:45;;;;;;;;;;;;;;;;;;5073983;28;20073;-64
2022/03/12 07:35:12;;;;;;;;;;;;;;;;;;5073874;28;19955;-63
2022/03/12 07:37:37;;;;;;;;;;;;;;;;;;5073872;28;20322;-63
2022/03/12 07:40:04;;;;;;;;;;;;;;;;;;5073665;28;19904;-63
2022/03/12 07:42:30;;;;;;;;;;;;;;;;;;5073540;28;20316;-63
2022/03/12 07:44:56;;;;;;;;;;;;;;;;;;5073677;28;19904;-63
2022/03/12 07:47:22;;;;;;;;;;;;;;;;;;5073580;28;19908;-63
2022/03/12 07:49:48;;;;;;;;;;;;;;;;;;5055858;28;19904;-63
2022/03/12 07:52:14;;;;;;;;;;;;;;;;;;5056220;28;19912;-63
2022/03/12 07:54:40;;;;;;;;;;;;;;;;;;5073671;28;19904;-64
2022/03/12 07:57:05;;;;;;;;;;;;;;;;;;5073784;28;20014;-64
2022/03/12 07:59:32;;;;;;;;;;;;;;;;;;5073553;28;19911;-64
2022/03/12 08:01:58;;;;;;;;;;;;;;;;;;5055401;28;19916;-64
2022/03/12 08:04:24;;;;;;;;;;;;;;;;;;5073574;28;19911;-64
2022/03/12 08:06:50;;;;;;;;;;;;;;;;;;5073528;28;20368;-63
2022/03/12 08:09:16;;;;;;;;;;;;;;;;;;5073886;28;19904;-64
2022/03/12 08:11:43;;;;;;;;;;;;;;;;;;5073410;28;19958;-64
2022/03/12 08:14:12;;;;;;;;;;;;;;;;;;5055343;28;20394;-64
2022/03/12 08:16:38;;;;;;;;;;;;;;;;;;5055307;28;19912;-64
2022/03/12 08:19:04;;;;;;;;;;;;;;;;;;5055374;28;19905;-64
2022/03/12 08:21:30;;;;;;;;;;;;;;;;;;5073371;28;19999;-64
2022/03/12 08:23:56;;;;;;;;;;;;;;;;;;5073482;28;19912;-64
2022/03/12 08:26:22;;;;;;;;;;;;;;;;;;5055092;28;19914;-62
2022/03/12 08:28:48;;;;;;;;;;;;;;;;;;5073265;28;20375;-62
2022/03/12 08:31:13;;;;;;;;;;;;;;;;;;5055035;28;19959;-62
2022/03/12 08:33:39;;;;;;;;;;;;;;;;;;5055369;28;19912;-62
2022/03/12 08:36:06;;;;;;;;;;;;;;;;;;5055176;28;20363;-62
2022/03/12 08:38:32;;;;;;;;;;;;;;;;;;5073394;28;20017;-63
2022/03/12 08:40:58;;;;;;;;;;;;;;;;;;5055184;28;19908;-62
2022/03/12 08:43:24;;;;;;;;;;;;;;;;;;5055156;28;19904;-62
2022/03/12 08:45:49;;;;;;;;;;;;;;;;;;5055029;28;19931;-63
2022/03/12 08:48:15;;;;;;;;;;;;;;;;;;5073129;28;19946;-63
2022/03/12 08:50:42;;;;;;;;;;;;;;;;;;5072924;28;19908;-63
2022/03/12 08:53:08;;;;;;;;;;;;;;;;;;5073081;28;19911;-63
2022/03/12 08:55:33;;;;;;;;;;;;;;;;;;5058054;28;19908;-61
2022/03/12 08:57:59;;;;;;;;;;;;;;;;;;5076905;28;19944;-62
2022/03/12 09:00:25;;;;;;;;;;;;;;;;;;5076540;28;19908;-62
2022/03/12 09:02:51;;;;;;;;;;;;;;;;;;5076522;28;20339;-61
2022/03/12 09:05:17;;;;;;;;;;;;;;;;;;5076363;28;19913;-62
2022/03/12 09:07:43;;;;;;;;;;;;;;;;;;5076601;28;19983;-63
2022/03/12 09:10:11;;;;;;;;;;;;;;;;;;5076793;28;19967;-63
2022/03/12 09:12:37;;;;;;;;;;;;;;;;;;5076409;28;20280;-61
2022/03/12 09:15:02;;;;;;;;;;;;;;;;;;5058511;28;19908;-63
2022/03/12 09:17:28;;;;;;;;;;;;;;;;;;5058440;28;20327;-63
2022/03/12 09:19:54;;;;;;;;;;;;;;;;;;5058464;28;19905;-63
2022/03/12 09:22:20;;;;;;;;;;;;;;;;;;5058246;28;19999;-63
2022/03/12 09:24:46;;;;;;;;;;;;;;;;;;5076378;28;19923;-63
2022/03/12 09:27:12;;;;;;;;;;;;;;;;;;5076477;28;19912;-63
2022/03/12 09:29:38;;;;;;;;;;;;;;;;;;5076166;28;19904;-63
2022/03/12 09:32:04;;;;;;;;;;;;;;;;;;5076282;28;19931;-63
2022/03/12 09:34:30;;;;;;;;;;;;;;;;;;5076039;28;20356;-63
2022/03/12 09:36:56;;;;;;;;;;;;;;;;;;5057953;28;19904;-63
2022/03/12 09:39:22;;;;;;;;;;;;;;;;;;5076023;28;19904;-63
2022/03/12 09:41:48;;;;;;;;;;;;;;;;;;5076013;28;19971;-63
2022/03/12 09:44:14;;;;;;;;;;;;;;;;;;5076279;28;20004;-63
2022/03/12 09:46:40;;;;;;;;;;;;;;;;;;5076302;28;20373;-63
2022/03/12 09:49:06;;;;;;;;;;;;;;;;;;5076070;28;19905;-63
2022/03/12 09:51:32;;;;;;;;;;;;;;;;;;5075719;28;19912;-63
2022/03/12 09:53:58;;;;;;;;;;;;;;;;;;5075695;28;19904;-62
2022/03/12 09:56:24;;;;;;;;;;;;;;;;;;5075635;28;19904;-64
2022/03/12 09:58:50;;;;;;;;;;;;;;;;;;5057676;28;19908;-64
2022/03/12 10:01:16;;;;;;;;;;;;;;;;;;5057592;28;20007;-63
2022/03/12 10:03:44;;;;;;;;;;;;;;;;;;5075714;28;19904;-64
2022/03/12 10:06:10;;;;;;;;;;;;;;;;;;5074780;28;20269;-63
2022/03/12 10:08:36;;;;;;;;;;;;;;;;;;5057502;28;19909;-63
2022/03/12 10:11:02;;;;;;;;;;;;;;;;;;5057128;28;20287;-63
2022/03/12 10:13:28;;;;;;;;;;;;;;;;;;5075616;28;19904;-62
2022/03/12 10:15:54;;;;;;;;;;;;;;;;;;5075316;28;19904;-62
2022/03/12 10:18:20;;;;;;;;;;;;;;;;;;5057373;28;19957;-63
2022/03/12 10:20:46;;;;;;;;;;;;;;;;;;5057270;28;20364;-63
2022/03/12 10:23:12;;;;;;;;;;;;;;;;;;5074998;28;19935;-62
2022/03/12 10:25:39;;;;;;;;;;;;;;;;;;5074904;28;20391;-63
2022/03/12 10:28:05;;;;;;;;;;;;;;;;;;5057144;28;20291;-63
2022/03/12 10:30:30;;;;;;;;;;;;;;;;;;5074883;28;19905;-63
2022/03/12 10:32:56;;;;;;;;;;;;;;;;;;5074866;28;19904;-62
2022/03/12 10:35:23;;;;;;;;;;;;;;;;;;5075085;28;19908;-62
2022/03/12 10:37:49;;;;;;;;;;;;;;;;;;5074803;28;20317;-63
2022/03/12 10:40:15;;;;;;;;;;;;;;;;;;5075147;28;20003;-62
2022/03/12 10:42:41;;;;;;;;;;;;;;;;;;5074963;28;19912;-63
2022/03/12 10:45:07;;;;;;;;;;;;;;;;;;5075327;28;20002;-63
2022/03/12 10:47:36;;;;;;;;;;;;;;;;;;5056659;28;20065;-64
2022/03/12 10:50:02;;;;;;;;;;;;;;;;;;5075178;28;20358;-63
2022/03/12 10:52:29;;;;;;;;;;;;;;;;;;5074480;28;19916;-61
2022/03/12 10:54:55;;;;;;;;;;;;;;;;;;5056500;28;19904;-63
2022/03/12 10:57:21;;;;;;;;;;;;;;;;;;5074385;28;19904;-63
2022/03/12 10:59:47;;;;;;;;;;;;;;;;;;5074422;28;19904;-63
2022/03/12 11:02:15;;;;;;;;;;;;;;;;;;5056507;28;19973;-63
2022/03/12 11:04:41;;;;;;;;;;;;;;;;;;5074437;28;19991;-63
2022/03/12 11:07:07;;;;;;;;;;;;;;;;;;5056299;28;20026;-63
2022/03/12 11:09:33;;;;;;;;;;;;;;;;;;5074352;28;19915;-63
2022/03/12 11:12:00;;;;;;;;;;;;;;;;;;5056196;28;19923;-63
2022/03/12 11:14:26;;;;;;;;;;;;;;;;;;5074428;28;20362;-63
2022/03/12 11:16:55;;;;;;;;;;;;;;;;;;5073854;28;19908;-63
2022/03/12 11:19:37;;;;;;;;;;;;;;;;;;5073534;28;19904;-63
2022/03/12 11:22:04;;;;;;;;;;;;;;;;;;5056431;28;19909;-63
2022/03/12 11:24:29;;;;;;;;;;;;;;;;;;5074049;28;19909;-63
2022/03/12 11:26:56;;;;;;;;;;;;;;;;;;5055967;28;19911;-64
2022/03/12 11:29:22;;;;;;;;;;;;;;;;;;5056100;28;20003;-63
2022/03/12 11:31:48;;;;;;;;;;;;;;;;;;5073884;28;19908;-63
2022/03/12 11:34:14;;;;;;;;;;;;;;;;;;5074038;28;19904;-63
2022/03/12 11:36:43;;;;;;;;;;;;;;;;;;5073901;28;19904;-63
2022/03/12 11:39:08;;;;;;;;;;;;;;;;;;5055989;28;19904;-63
2022/03/12 11:41:34;;;;;;;;;;;;;;;;;;5073840;28;19904;-63
2022/03/12 11:44:00;;;;;;;;;;;;;;;;;;5074238;28;19904;-66
2022/03/12 11:46:26;;;;;;;;;;;;;;;;;;5073869;28;20364;-64
2022/03/12 11:48:52;;;;;;;;;;;;;;;;;;5073859;28;20402;-64
2022/03/12 11:51:19;;;;;;;10.35;6.82;;;;;;;;;;5072444;28;20458;-63
2022/03/12 11:53:46;;;;;;;112.40;16.20;;;;;;;;;;5072264;28;20866;-63
2022/03/12 11:56:11;;;;;;;;;;;;;;;;;;5073527;28;20036;-65
2022/03/12 11:58:37;;;;;;;14.07;6.22;;;;;;;;;;5071901;28;20377;-63
2022/03/12 12:01:06;;;;;;;7.60;5.82;;;;;;;;;;5053967;28;20388;-63
2022/03/12 12:03:32;;;;;;;34.00;7.30;;;;;;;;;;5072331;28;20384;-65
2022/03/12 12:05:59;;;;;;;8.60;5.35;;;;;;;;;;5053976;28;20391;-62
2022/03/12 12:08:25;;;;;;;7.88;5.40;;;;;;;;;;5053921;28;20384;-65
2022/03/12 12:10:51;;;;;;;9.60;6.20;;;;;;;;;;5072082;28;20457;-64
2022/03/12 12:13:18;;;;;;;9.20;5.05;;;;;;;;;;5072065;28;20400;-62
2022/03/12 12:15:46;;;;;;;6.90;5.03;;;;;;;;;;5071948;28;20425;-67
2022/03/12 12:18:13;;;;;;;10.90;5.60;;;;;;;;;;5072429;28;20517;-64
2022/03/12 12:20:40;;;;;;;9.48;5.85;;;;;;;;;;5054137;28;20475;-64
2022/03/12 12:23:06;;;;;;;10.25;6.00;;;;;;;;;;5071981;28;20380;-64
2022/03/12 12:25:34;;;;;;;8.27;5.50;;;;;;;;;;5053605;28;20740;-62
2022/03/12 12:28:00;;;;;;;5.90;4.65;;;;;;;;;;5071889;28;20551;-64
2022/03/12 12:30:40;;;;;;;9.23;4.97;;;;;;;;;;5075011;28;20759;-64
2022/03/12 12:33:29;;;;;;;6.22;4.75;;;;;;;;;;5076005;28;20390;-65
2022/03/12 12:36:11;;;;;;;7.47;4.93;;;;;;;;;;5050125;28;20409;-62
2022/03/12 12:38:39;;;;;;;7.53;4.50;;;;;;;;;;5057832;28;20372;-63
2022/03/12 12:41:06;;;;;;;7.63;4.88;;;;;;;;;;5075501;28;20391;-62
2022/03/12 12:43:33;;;;;;;5.63;4.50;;;;;;;;;;5075595;28;20785;-63
2022/03/12 12:46:09;;;;;;;7.67;4.90;;;;;;;;;;5075375;28;20375;-62
2022/03/12 12:48:38;;;;;;;6.90;4.80;;;;;;;;;;5057928;28;20391;-62
2022/03/12 12:51:07;;;;;;;7.00;4.20;;;;;;;;;;5057319;28;20495;-63
2022/03/12 12:53:37;;;;;;;6.93;4.50;;;;;;;;;;5057511;28;20479;-62
2022/03/12 12:56:23;;;;;;;7.07;4.32;;;;;;;;;;5075088;28;20458;-62
2022/03/12 12:58:52;;;;;;;7.15;4.70;;;;;;;;;;5075450;28;20455;-62
2022/03/12 13:01:19;;;;;;;7.10;4.57;;;;;;;;;;5075369;28;20490;-63
2022/03/12 13:03:47;;;;;;;6.03;4.25;;;;;;;;;;5074997;28;20432;-63
2022/03/12 13:06:13;;;;;;;7.63;4.47;;;;;;;;;;5074912;28;20404;-64
2022/03/12 13:08:43;;;;;;;7.22;4.47;;;;;;;;;;5057045;28;20744;-64
2022/03/12 13:11:28;;;;;;;5.68;4.43;;;;;;;;;;5057317;28;20481;-64
2022/03/12 13:13:55;;;;;;;8.93;5.32;;;;;;;;;;5075313;28;20380;-64
2022/03/12 13:16:22;;;;;;;9.80;5.10;;;;;;;;;;5074882;28;20909;-64
2022/03/12 13:18:47;;;;;;;9.20;6.07;;;;;;;;;;5056951;28;20383;-64
2022/03/12 13:21:24;;;;;;;6.85;5.20;;;;;;;;;;5074685;28;20785;-63
2022/03/12 13:23:50;;;;;;;6.40;5.53;;;;;;;;;;5074807;28;20887;-64
2022/03/12 13:26:17;;;;;;;7.85;5.40;;;;;;;;;;5074660;28;20429;-64
2022/03/12 13:28:49;;;;;;;6.00;5.40;;;;;;;;;;5074659;28;20811;-63
2022/03/12 13:31:27;;;;;;;8.45;5.47;;;;;;;;;;5056584;28;20399;-64
2022/03/12 13:33:57;;;;;;;7.20;5.75;;;;;;;;;;5074484;28;20388;-64
2022/03/12 13:36:26;;;;;;;7.88;5.72;;;;;;;;;;5056942;28;20425;-64
2022/03/12 13:38:53;;;;;;;7.90;6.00;;;;;;;;;;5074355;28;20387;-63
2022/03/12 13:41:20;;;;;;;7.40;5.30;;;;;;;;;;5073462;28;20383;-63
2022/03/12 13:43:46;;;;;;;6.78;6.00;;;;;;;;;;5056427;28;20388;-63
2022/03/12 13:46:13;;;;;;;7.25;5.78;;;;;;;;;;5074180;28;20455;-64
2022/03/12 13:48:41;;;;;;;6.97;5.80;;;;;;;;;;5056266;28;20751;-63
2022/03/12 13:51:07;;;;;;;7.97;6.47;;;;;;;;;;5074275;28;20862;-64
2022/03/12 13:53:33;;;;;;;6.57;5.97;;;;;;;;;;5056258;28;20471;-64
2022/03/12 13:56:09;;;;;;;6.50;5.27;;;;;;;;;;5073959;28;20463;-63
2022/03/12 13:58:39;;;;;;;7.25;6.00;;;;;;;;;;5074315;28;20801;-63
2022/03/12 14:01:07;;;;;;;9.15;6.00;;;;;;;;;;5074242;28;20409;-64
2022/03/12 14:03:43;;;;;;;7.43;6.57;;;;;;;;;;5074216;28;20849;-64
2022/03/12 14:06:09;;;;;;;9.47;6.97;;;;;;;;;;5073745;28;20410;-64
2022/03/12 14:08:35;;;;;;;7.03;6.18;;;;;;;;;;5074395;28;20843;-63
2022/03/12 14:11:07;;;;;;;7.25;6.15;;;;;;;;;;5073757;28;20403;-63
2022/03/12 14:13:40;;;;;;;6.85;5.95;;;;;;;;;;5074298;28;20693;-64
2022/03/12 14:18:42;;;;;;;7.78;6.20;;;;;;;;;;5092761;22;20446;-62
2022/03/12 14:21:13;;;;;;;11.48;7.07;;;;;;;;;;5093636;28;20876;-63
2022/03/12 14:23:39;;;;;;;8.02;6.07;;;;;;;;;;5093748;28;20374;-63
2022/03/12 14:26:05;;;;;;;7.22;6.18;;;;;;;;;;5075587;28;20791;-62
2022/03/12 14:28:31;;;;;;;8.82;6.20;;;;;;;;;;5093745;28;20404;-63
2022/03/12 14:30:57;;;;;;;9.35;6.18;;;;;;;;;;5075460;28;20414;-62
2022/03/12 14:33:23;;;;;;;6.40;5.78;;;;;;;;;;5075590;28;20423;-62
2022/03/12 14:35:49;;;;;;;5.93;5.40;;;;;;;;;;5093827;28;20424;-63
2022/03/12 14:38:15;;;;;;;7.13;5.88;;;;;;;;;;5093402;28;20384;-61
2022/03/12 14:40:41;;;;;;;8.43;5.60;;;;;;;;;;5093577;28;20778;-62
2022/03/12 14:43:07;;;;;;;9.23;6.55;;;;;;;;;;5075395;28;20393;-61
2022/03/12 14:45:33;;;;;;;9.20;5.83;;;;;;;;;;5075343;28;20450;-62
2022/03/12 14:48:01;;;;;;;8.13;6.15;;;;;;;;;;5093254;28;20408;-62
2022/03/12 14:50:27;;;;;;;8.20;6.40;;;;;;;;;;5107547;22;20475;-64
2022/03/12 14:52:54;;;;;;;8.05;6.32;;;;;;;;;;5093309;28;20492;-66
2022/03/12 14:55:21;;;;;;;6.20;5.57;;;;;;;;;;5074967;28;20374;-64
2022/03/12 14:57:47;;;;;;;6.25;5.47;;;;;;;;;;5093109;28;20366;-66
2022/03/12 15:00:18;;;;;;;5.65;4.43;;;;;;;;;;5074766;28;20934;-66
2022/03/12 15:02:45;;;;;;;4.83;4.20;;;;;;;;;;5094422;28;20173;-64
2022/03/12 15:05:11;;;;;;;5.63;4.43;;;;;;;;;;5075977;28;20177;-66
2022/03/12 15:07:37;;;;;;;;;;;;;;;;;;5095070;28;20035;-65
2022/03/12 15:10:14;;;;;;;5.17;4.27;;;;;;;;;;5075779;28;20183;-63
2022/03/12 15:13:00;;;;;;;4.90;4.07;;;;;;;;;;5093893;28;20659;-64
2022/03/12 15:15:33;;;;;;;6.37;4.40;;;;;;;;;;5094304;28;20150;-64
2022/03/12 15:17:59;;;;;;;4.37;3.83;;;;;;;;;;5093800;28;20176;-64
2022/03/12 15:20:28;;;;;;;6.03;4.17;;;;;;;;;;5093840;28;20197;-63